Time;durP1;ratioP1;P1;durP2;ratioP2;P2;SDS_P1;SDS_P2;PMS_P1;PMS_P2;Temp;Humidity;BMP_temperature;BMP_pressure;BME280_temperature;BME280_humidity;BME280_pressure;Samples;Min_cycle;Max_cycle;Signal;HPM_P1;HPM_P2
2022/06/13 00:01:32;;;;;;;1.95;0.77;;;19.00;93.60;;;;;;4308006;33;20081;-64
2022/06/13 00:04:00;;;;;;;0.20;0.20;;;19.00;94.00;;;;;;4306647;33;20083;-64
2022/06/13 00:06:25;;;;;;;1.55;0.88;;;18.90;94.20;;;;;;4304025;33;20425;-64
2022/06/13 00:08:51;;;;;;;0.20;0.20;;;19.00;94.50;;;;;;4305443;33;20083;-64
2022/06/13 00:11:20;;;;;;;0.37;0.37;;;18.90;94.60;;;;;;4305560;33;20415;-64
2022/06/13 00:13:49;;;;;;;1.08;0.70;;;18.80;95.20;;;;;;4293170;33;20089;-65
2022/06/13 00:16:15;;;;;;;1.50;0.98;;;18.80;95.30;;;;;;4305064;33;20080;-64
2022/06/13 00:18:42;;;;;;;0.47;0.47;;;18.90;95.20;;;;;;4305290;33;20599;-64
2022/06/13 00:21:08;;;;;;;12.50;0.73;;;18.90;95.20;;;;;;4295524;33;20537;-64
2022/06/13 00:23:36;;;;;;;0.40;0.40;;;18.90;95.50;;;;;;4302986;33;20080;-65
2022/06/13 00:26:01;;;;;;;0.20;0.20;;;18.90;95.50;;;;;;4303939;33;20064;-65
2022/06/13 00:28:27;;;;;;;0.25;0.25;;;18.90;95.70;;;;;;4306348;33;21359;-64
2022/06/13 00:30:52;;;;;;;0.20;0.20;;;18.80;95.90;;;;;;4306070;33;20088;-65
2022/06/13 00:33:17;;;;;;;0.20;0.20;;;18.70;96.10;;;;;;4308144;33;20084;-64
2022/06/13 00:35:43;;;;;;;0.20;0.20;;;18.60;96.30;;;;;;4305841;33;20507;-65
2022/06/13 00:38:09;;;;;;;1.10;0.60;;;18.60;96.50;;;;;;4307941;33;20071;-64
2022/06/13 00:40:34;;;;;;;0.20;0.20;;;18.70;96.40;;;;;;4308650;33;20080;-64
2022/06/13 00:43:01;;;;;;;0.30;0.30;;;18.70;96.40;;;;;;4308314;33;20076;-64
2022/06/13 00:45:32;;;;;;;0.28;0.28;;;18.60;96.80;;;;;;4306130;33;20133;-64
2022/06/13 00:47:58;;;;;;;0.30;0.30;;;18.50;96.90;;;;;;4293698;33;20093;-64
2022/06/13 00:50:28;;;;;;;0.30;0.30;;;18.60;96.90;;;;;;4302642;33;20406;-64
2022/06/13 00:53:04;;;;;;;0.40;0.40;;;18.60;96.90;;;;;;4295749;33;20516;-64
2022/06/13 00:55:36;;;;;;;1.67;0.93;;;18.50;96.90;;;;;;4306585;33;20076;-64
2022/06/13 00:58:03;;;;;;;1.05;0.98;;;18.50;96.70;;;;;;4306497;33;20119;-64
2022/06/13 01:00:29;;;;;;;0.50;0.40;;;18.50;96.80;;;;;;4309309;33;20076;-64
2022/06/13 01:02:55;;;;;;;0.20;0.20;;;18.50;96.80;;;;;;4308700;33;20084;-65
2022/06/13 01:05:25;;;;;;;1.35;0.80;;;18.40;97.10;;;;;;4308146;33;20072;-64
2022/06/13 01:07:52;;;;;;;0.30;0.30;;;18.50;97.10;;;;;;4301595;33;20088;-64
2022/06/13 01:11:18;;;;;;;0.30;0.30;;;18.30;97.60;;;;;;4303913;33;20101;-65
2022/06/13 01:13:07;;;;;;;2.78;0.50;;;18.30;97.30;;;;;;4296119;33;20092;-65
2022/06/13 01:15:49;;;;;;;0.60;0.60;;;18.20;97.50;;;;;;4300131;33;20072;-64
2022/06/13 01:18:43;;;;;;;1.98;1.25;;;18.20;97.70;;;;;;4306456;33;20446;-64
2022/06/13 01:21:13;;;;;;;0.30;0.30;;;18.20;97.50;;;;;;4296899;33;20161;-64
2022/06/13 01:23:52;;;;;;;0.20;0.20;;;18.20;97.70;;;;;;4306205;33;20107;-64
2022/06/13 01:26:58;;;;;;;0.40;0.40;;;18.20;97.90;;;;;;4305359;33;21320;-65
2022/06/13 01:29:29;;;;;;;2.30;1.05;;;18.10;98.10;;;;;;4308368;33;20079;-65
2022/06/13 01:32:12;;;;;;;0.20;0.20;;;18.10;98.30;;;;;;4305572;33;86727;-65
2022/06/13 01:35:04;;;;;;;0.35;0.35;;;18.00;98.80;;;;;;4307200;33;20125;-65
2022/06/13 01:37:54;;;;;;;0.30;0.30;;;18.10;98.50;;;;;;4306255;33;20068;-65
2022/06/13 01:40:44;;;;;;;20.90;1.60;;;18.10;98.80;;;;;;4305944;33;20145;-65
2022/06/13 01:43:49;;;;;;;0.40;0.40;;;18.00;99.30;;;;;;4308227;33;20591;-65
2022/06/13 01:46:55;;;;;;;0.20;0.20;;;17.90;99.90;;;;;;4298441;33;20064;-65
2022/06/13 01:49:37;;;;;;;0.30;0.30;;;17.80;99.90;;;;;;4297096;33;20056;-65
2022/06/13 01:52:14;;;;;;;0.70;0.70;;;17.80;99.90;;;;;;4290030;33;20071;-65
2022/06/13 01:54:48;;;;;;;0.75;0.73;;;17.70;99.90;;;;;;4301337;33;20068;-65
2022/06/13 01:57:30;;;;;;;0.37;0.37;;;17.90;99.90;;;;;;4307830;33;20096;-65
2022/06/13 02:00:07;;;;;;;0.45;0.45;;;17.90;99.90;;;;;;4305778;33;20414;-65
2022/06/13 02:02:54;;;;;;;0.62;0.62;;;17.90;99.90;;;;;;4308294;33;20080;-65
2022/06/13 02:05:29;;;;;;;0.22;0.22;;;17.90;99.90;;;;;;4306140;33;20805;-65
2022/06/13 02:08:01;;;;;;;0.77;0.35;;;17.80;99.90;;;;;;4307612;33;20077;-65
2022/06/13 02:10:33;;;;;;;0.30;0.30;;;17.60;99.90;;;;;;4307904;33;20484;-65
2022/06/13 02:13:06;;;;;;;0.20;0.20;;;17.50;99.90;;;;;;4305844;33;20126;-65
2022/06/13 02:15:39;;;;;;;0.45;0.45;;;17.50;99.90;;;;;;4306780;33;20087;-65
2022/06/13 02:18:12;;;;;;;0.32;0.32;;;17.40;99.90;;;;;;4304760;33;20084;-65
2022/06/13 02:20:41;;;;;;;0.75;0.60;;;17.40;99.90;;;;;;4298392;33;20091;-64
2022/06/13 02:23:11;;;;;;;0.40;0.40;;;17.30;99.90;;;;;;4297782;33;20092;-64
2022/06/13 02:25:44;;;;;;;0.43;0.43;;;17.30;99.90;;;;;;4293443;33;20099;-65
2022/06/13 02:28:17;;;;;;;0.30;0.30;;;17.30;99.90;;;;;;4295695;33;20541;-65
2022/06/13 02:30:49;;;;;;;2.62;0.77;;;17.10;99.90;;;;;;4308219;33;20088;-65
2022/06/13 02:33:22;;;;;;;0.40;0.40;;;17.20;99.90;;;;;;4307956;33;20578;-65
2022/06/13 02:35:53;;;;;;;0.68;0.68;;;17.10;99.90;;;;;;4307010;33;20083;-65
2022/06/13 02:38:33;;;;;;;0.37;0.37;;;17.10;99.90;;;;;;4293187;33;20072;-65
2022/06/13 02:41:04;;;;;;;0.43;0.43;;;17.00;99.90;;;;;;4308116;33;20541;-65
2022/06/13 02:43:39;;;;;;;0.20;0.20;;;17.10;99.90;;;;;;4307715;33;20524;-65
2022/06/13 02:46:11;;;;;;;0.47;0.47;;;17.00;99.90;;;;;;4307661;33;20532;-65
2022/06/13 02:48:44;;;;;;;1.35;0.88;;;17.10;99.90;;;;;;4306662;33;20068;-65
2022/06/13 02:51:40;;;;;;;0.35;0.35;;;17.10;99.90;;;;;;4296355;33;20103;-65
2022/06/13 02:54:33;;;;;;;0.80;0.43;;;17.10;99.90;;;;;;4306845;33;20072;-64
2022/06/13 02:57:24;;;;;;;0.40;0.40;;;17.10;99.90;;;;;;4303185;33;20516;-64
2022/06/13 03:00:08;;;;;;;1.00;0.30;;;17.10;99.90;;;;;;4300103;33;20104;-64
2022/06/13 03:02:54;;;;;;;0.32;0.32;;;17.10;99.90;;;;;;4307559;33;20138;-65
2022/06/13 03:05:30;;;;;;;0.65;0.50;;;17.20;99.90;;;;;;4308418;33;20089;-65
2022/06/13 03:08:04;;;;;;;0.30;0.30;;;17.20;99.90;;;;;;4304289;33;20091;-65
2022/06/13 03:10:41;;;;;;;0.28;0.28;;;17.30;99.90;;;;;;4307859;33;20087;-64
2022/06/13 03:13:19;;;;;;;0.28;0.28;;;17.30;99.90;;;;;;4307937;33;20076;-65
2022/06/13 03:15:53;;;;;;;1.00;0.50;;;17.30;99.90;;;;;;4305997;33;20521;-66
2022/06/13 03:18:26;;;;;;;0.37;0.37;;;17.40;99.90;;;;;;4305702;33;20122;-65
2022/06/13 03:21:12;;;;;;;0.60;0.28;;;17.40;99.90;;;;;;4297608;33;20136;-65
2022/06/13 03:23:46;;;;;;;0.40;0.40;;;17.40;99.90;;;;;;4301960;33;20465;-65
2022/06/13 03:26:17;;;;;;;0.40;0.40;;;17.40;99.90;;;;;;4308210;33;20071;-65
2022/06/13 03:28:52;;;;;;;0.30;0.30;;;17.40;99.90;;;;;;4308342;33;20080;-65
2022/06/13 03:31:22;;;;;;;0.80;0.40;;;17.30;99.90;;;;;;4307008;33;20083;-65
2022/06/13 03:33:59;;;;;;;;;;;17.20;99.90;;;;;;4305800;33;20164;-65
2022/06/13 03:36:36;;;;;;;1.55;0.90;;;17.20;99.90;;;;;;4306637;33;19952;-66
2022/06/13 03:39:22;;;;;;;2.95;0.88;;;17.10;99.90;;;;;;4307594;33;20131;-66
2022/06/13 03:41:52;;;;;;;0.52;0.35;;;17.00;99.90;;;;;;4306671;33;20097;-66
2022/06/13 03:44:29;;;;;;;0.30;0.30;;;17.00;99.90;;;;;;4306405;33;20437;-65
2022/06/13 03:46:59;;;;;;;0.30;0.30;;;17.00;99.90;;;;;;4304437;33;20539;-65
2022/06/13 03:49:34;;;;;;;0.50;0.50;;;17.00;99.90;;;;;;4305181;33;20156;-66
2022/06/13 03:52:02;;;;;;;0.20;0.20;;;17.00;99.90;;;;;;4291435;33;20466;-65
2022/06/13 03:54:36;;;;;;;0.20;0.20;;;17.00;99.90;;;;;;4305565;33;20076;-66
2022/06/13 03:57:17;;;;;;;0.45;0.45;;;16.90;99.90;;;;;;4306276;33;20107;-66
2022/06/13 03:59:49;;;;;;;0.37;0.37;;;16.90;99.90;;;;;;4305994;33;20487;-66
2022/06/13 04:02:18;;;;;;;0.25;0.25;;;16.90;99.90;;;;;;4307298;33;20076;-66
2022/06/13 04:04:48;;;;;;;0.62;0.40;;;16.90;99.90;;;;;;4307040;33;20064;-66
2022/06/13 04:07:17;;;;;;;0.40;0.40;;;16.80;99.90;;;;;;4305072;33;20075;-66
2022/06/13 04:09:48;;;;;;;0.30;0.30;;;16.70;99.90;;;;;;4302254;33;20060;-66
2022/06/13 04:12:21;;;;;;;;;;;16.60;99.90;;;;;;4304892;33;20597;-66
2022/06/13 04:15:26;;;;;;;0.35;0.35;;;16.70;99.90;;;;;;4305697;33;20073;-66
2022/06/13 04:18:06;;;;;;;0.20;0.20;;;16.60;99.90;;;;;;4305296;33;20065;-65
2022/06/13 04:20:41;;;;;;;0.32;0.32;;;16.60;99.90;;;;;;4297102;33;20434;-65
2022/06/13 04:23:43;;;;;;;0.30;0.30;;;16.50;99.90;;;;;;4250614;33;20092;-65
2022/06/13 04:26:32;;;;;;;0.82;0.35;;;16.50;99.90;;;;;;4267282;33;20413;-66
2022/06/13 04:29:21;;;;;;;0.25;0.25;;;16.40;99.90;;;;;;4265206;33;20077;-66
2022/06/13 04:31:48;;;;;;;0.40;0.40;;;16.50;99.90;;;;;;4303183;33;20558;-65
2022/06/13 04:34:20;;;;;;;0.30;0.30;;;16.60;99.90;;;;;;4302546;33;20073;-65
2022/06/13 04:36:48;;;;;;;7.10;0.37;;;16.50;99.90;;;;;;4304742;33;20063;-65
2022/06/13 04:39:17;;;;;;;0.50;0.50;;;16.50;99.90;;;;;;4308149;33;20079;-65
2022/06/13 04:41:45;;;;;;;0.37;0.37;;;16.50;99.90;;;;;;4304052;33;20060;-65
2022/06/13 04:44:18;;;;;;;1.77;0.65;;;16.50;99.90;;;;;;4305627;33;20099;-65
2022/06/13 04:46:44;;;;;;;0.45;0.45;;;16.60;99.90;;;;;;4301324;33;20097;-65
2022/06/13 04:49:39;;;;;;;0.45;0.37;;;16.70;99.90;;;;;;4306130;33;20384;-66
2022/06/13 04:52:13;;;;;;;17.37;1.45;;;16.60;99.90;;;;;;4269893;33;20640;-66
2022/06/13 04:55:01;;;;;;;0.50;0.50;;;16.60;99.90;;;;;;4295397;33;20072;-65
2022/06/13 04:57:28;;;;;;;0.52;0.52;;;16.60;99.90;;;;;;4305992;33;20067;-65
2022/06/13 04:59:54;;;;;;;0.30;0.30;;;16.70;99.90;;;;;;4303394;33;20071;-65
2022/06/13 05:02:23;;;;;;;0.20;0.20;;;16.60;99.90;;;;;;4275155;33;20326;-65
2022/06/13 05:04:50;;;;;;;1.42;0.80;;;16.70;99.90;;;;;;4265014;33;20525;-67
2022/06/13 05:07:20;;;;;;;0.47;0.43;;;16.60;99.90;;;;;;4266521;33;20072;-63
2022/06/13 05:09:52;;;;;;;0.68;0.50;;;16.60;99.90;;;;;;4263588;33;20413;-65
2022/06/13 05:12:25;;;;;;;0.50;0.50;;;16.70;99.90;;;;;;4286788;33;20100;-65
2022/06/13 05:15:02;;;;;;;0.80;0.40;;;16.70;99.90;;;;;;4288829;33;20433;-64
2022/06/13 05:17:50;;;;;;;3.60;0.60;;;16.60;99.90;;;;;;4258574;33;20637;-65
2022/06/13 05:20:19;;;;;;;0.52;0.43;;;16.60;99.90;;;;;;4214755;33;20351;-64
2022/06/13 05:22:56;;;;;;;2.17;0.88;;;16.70;99.90;;;;;;4243107;33;20588;-64
2022/06/13 05:25:44;;;;;;;0.28;0.28;;;16.80;99.90;;;;;;4241999;33;20512;-64
2022/06/13 05:28:11;;;;;;;0.75;0.45;;;16.80;99.90;;;;;;4263635;33;20438;-65
2022/06/13 05:30:43;;;;;;;0.30;0.30;;;16.80;99.90;;;;;;4217524;33;20602;-65
2022/06/13 05:33:11;;;;;;;1.55;0.88;;;16.80;99.90;;;;;;4236571;33;20398;-66
2022/06/13 05:35:43;;;;;;;0.30;0.30;;;16.90;99.90;;;;;;4250089;33;20481;-66
2022/06/13 05:38:14;;;;;;;0.70;0.70;;;17.00;99.90;;;;;;4271267;33;20406;-65
2022/06/13 05:40:40;;;;;;;0.20;0.20;;;17.00;99.90;;;;;;4281324;33;20764;-64
2022/06/13 05:43:09;;;;;;;0.95;0.88;;;17.10;99.90;;;;;;4282766;33;20152;-65
2022/06/13 05:45:37;;;;;;;0.37;0.37;;;17.10;99.90;;;;;;4289266;33;20079;-66
2022/06/13 05:48:03;;;;;;;1.23;0.47;;;17.10;99.90;;;;;;4282139;33;20270;-65
2022/06/13 05:50:32;;;;;;;0.37;0.37;;;17.10;99.90;;;;;;4283531;33;20697;-65
2022/06/13 05:52:58;;;;;;;0.55;0.55;;;17.00;99.90;;;;;;4266714;33;20600;-65
2022/06/13 05:55:23;;;;;;;0.70;0.65;;;17.00;99.90;;;;;;4288816;33;20156;-65
2022/06/13 05:57:49;;;;;;;0.30;0.30;;;17.10;99.90;;;;;;4271029;33;20250;-65
2022/06/13 06:00:18;;;;;;;1.95;0.40;;;17.10;99.90;;;;;;4270157;33;20099;-65
2022/06/13 06:02:44;;;;;;;0.20;0.20;;;17.00;99.90;;;;;;4271454;33;20095;-65
2022/06/13 06:05:09;;;;;;;0.35;0.35;;;17.20;99.90;;;;;;4266961;33;20179;-65
2022/06/13 06:07:36;;;;;;;0.30;0.30;;;17.40;99.90;;;;;;4281450;33;21057;-65
2022/06/13 06:10:03;;;;;;;0.30;0.30;;;17.60;99.90;;;;;;4278858;33;20165;-65
2022/06/13 06:12:29;;;;;;;1.67;0.77;;;17.60;99.90;;;;;;4270115;33;20089;-65
2022/06/13 06:14:54;;;;;;;0.30;0.30;;;17.50;99.90;;;;;;4272486;33;20068;-65
2022/06/13 06:17:20;;;;;;;1.60;0.77;;;17.50;99.00;;;;;;4274939;33;20659;-65
2022/06/13 06:19:46;;;;;;;0.57;0.57;;;17.30;98.00;;;;;;4268764;33;20103;-67
2022/06/13 06:22:12;;;;;;;0.57;0.57;;;17.20;98.20;;;;;;4268804;33;20172;-64
2022/06/13 06:24:38;;;;;;;8.38;0.43;;;17.20;98.20;;;;;;4275674;33;20104;-65
2022/06/13 06:27:04;;;;;;;0.60;0.60;;;17.20;98.60;;;;;;4275871;33;20194;-65
2022/06/13 06:29:29;;;;;;;0.40;0.40;;;17.20;99.00;;;;;;4270779;33;20083;-65
2022/06/13 06:31:55;;;;;;;0.20;0.20;;;17.20;98.80;;;;;;4271290;33;20360;-65
2022/06/13 06:34:20;;;;;;;3.37;0.52;;;17.30;98.60;;;;;;4277475;33;20613;-66
2022/06/13 06:36:46;;;;;;;0.32;0.32;;;17.40;98.00;;;;;;4283873;33;20100;-65
2022/06/13 06:39:12;;;;;;;3.85;0.82;;;17.40;98.60;;;;;;4274380;33;20172;-65
2022/06/13 06:41:37;;;;;;;0.20;0.20;;;17.40;97.40;;;;;;4275467;33;20478;-65
2022/06/13 06:44:03;;;;;;;1.55;0.85;;;17.40;97.60;;;;;;4279501;33;20170;-65
2022/06/13 06:46:28;;;;;;;0.30;0.30;;;17.40;97.60;;;;;;4273567;33;20238;-64
2022/06/13 06:48:54;;;;;;;0.30;0.30;;;17.30;97.70;;;;;;4269070;33;21522;-64
2022/06/13 06:51:19;;;;;;;0.77;0.57;;;17.20;98.20;;;;;;4276452;33;20494;-65
2022/06/13 07:00:17;;;;;;;0.20;0.20;;;17.40;97.10;;;;;;4278363;33;20125;-65
2022/06/13 07:02:02;;;;;;;0.20;0.20;;;17.30;96.60;;;;;;4274229;33;20108;-65
2022/06/13 07:04:27;;;;;;;0.85;0.85;;;17.40;97.10;;;;;;4270779;33;20205;-65
2022/06/13 07:06:53;;;;;;;4.55;2.15;;;17.50;96.80;;;;;;4273088;33;20200;-66
2022/06/13 07:09:18;;;;;;;0.22;0.22;;;17.60;96.90;;;;;;4264747;33;21222;-65
2022/06/13 07:11:59;;;;;;;0.35;0.35;;;17.80;95.80;;;;;;4266014;33;20620;-65
2022/06/13 07:14:28;;;;;;;1.10;0.85;;;17.70;95.70;;;;;;4271078;33;20756;-65
2022/06/13 07:16:55;;;;;;;0.43;0.43;;;17.90;95.90;;;;;;4274756;33;20120;-65
2022/06/13 07:19:20;;;;;;;0.70;0.70;;;18.00;95.40;;;;;;4271528;33;20108;-65
2022/06/13 07:21:46;;;;;;;2.53;1.40;;;18.20;95.40;;;;;;4275931;33;20095;-65
2022/06/13 07:24:12;;;;;;;0.30;0.30;;;18.30;95.00;;;;;;4266255;33;20084;-65
2022/06/13 07:26:38;;;;;;;0.25;0.25;;;18.40;95.10;;;;;;4259253;33;20108;-65
2022/06/13 07:29:05;;;;;;;0.40;0.40;;;18.40;94.60;;;;;;4265209;33;20093;-65
2022/06/13 07:31:38;;;;;;;0.30;0.30;;;18.30;94.60;;;;;;4253933;33;20852;-65
2022/06/13 07:34:06;;;;;;;0.62;0.35;;;18.30;94.00;;;;;;4270669;33;20609;-65
2022/06/13 07:36:31;;;;;;;0.40;0.40;;;18.20;95.00;;;;;;4279384;33;20076;-65
2022/06/13 07:38:57;;;;;;;0.65;0.65;;;18.10;94.40;;;;;;4272761;33;20143;-65
2022/06/13 07:41:24;;;;;;;6.12;1.27;;;17.80;94.20;;;;;;4276266;33;20583;-65
2022/06/13 07:43:51;;;;;;;0.30;0.30;;;17.70;94.30;;;;;;4278457;33;20459;-66
2022/06/13 07:46:17;;;;;;;2.12;0.93;;;17.60;94.50;;;;;;4281770;33;20097;-65
2022/06/13 07:48:47;;;;;;;0.35;0.35;;;17.50;94.60;;;;;;4273794;33;20092;-66
2022/06/13 07:51:13;;;;;;;0.22;0.22;;;17.40;95.00;;;;;;4276010;33;20129;-65
2022/06/13 07:53:39;;;;;;;0.40;0.40;;;17.50;94.90;;;;;;4266686;33;20206;-65
2022/06/13 07:56:04;;;;;;;0.30;0.30;;;17.60;94.70;;;;;;4275489;33;20100;-65
2022/06/13 07:58:34;;;;;;;0.30;0.30;;;17.70;94.60;;;;;;4277664;33;20124;-65
2022/06/13 08:01:00;;;;;;;0.35;0.35;;;17.70;94.20;;;;;;4278046;33;20245;-65
2022/06/13 08:03:29;;;;;;;0.22;0.22;;;17.80;94.10;;;;;;4269484;33;20103;-65
2022/06/13 08:05:56;;;;;;;1.70;0.50;;;17.90;94.10;;;;;;4283867;33;20450;-64
2022/06/13 08:08:23;;;;;;;0.20;0.20;;;18.00;94.20;;;;;;4265604;33;20092;-65
2022/06/13 08:10:49;;;;;;;0.25;0.25;;;18.00;94.10;;;;;;4283982;33;20187;-64
2022/06/13 08:13:17;;;;;;;1.27;0.68;;;18.00;94.10;;;;;;4272293;33;20120;-65
2022/06/13 08:15:44;;;;;;;0.30;0.30;;;18.10;93.80;;;;;;4266951;33;20097;-65
2022/06/13 08:18:11;;;;;;;0.43;0.43;;;18.30;94.10;;;;;;4268199;33;21010;-65
2022/06/13 08:20:38;;;;;;;10.52;0.75;;;18.50;93.50;;;;;;4277199;33;20108;-65
2022/06/13 08:23:05;;;;;;;0.30;0.30;;;18.70;93.30;;;;;;4283192;33;20076;-66
2022/06/13 08:25:33;;;;;;;0.30;0.30;;;18.90;92.50;;;;;;4287300;33;20104;-66
2022/06/13 08:27:59;;;;;;;4.07;0.40;;;18.90;92.40;;;;;;4288472;33;20125;-66
2022/06/13 08:30:29;;;;;;;0.73;0.40;;;19.00;91.90;;;;;;4280291;33;20092;-66
2022/06/13 08:32:54;;;;;;;0.40;0.40;;;18.90;90.80;;;;;;4264480;33;20084;-66
2022/06/13 08:35:20;;;;;;;1.98;1.12;;;18.90;90.70;;;;;;4280701;33;20160;-66
2022/06/13 08:37:45;;;;;;;2.67;0.40;;;18.80;90.00;;;;;;4278953;33;21020;-67
2022/06/13 08:40:11;;;;;;;0.85;0.52;;;18.70;90.20;;;;;;4260887;33;20075;-66
2022/06/13 08:42:48;;;;;;;0.40;0.40;;;18.70;90.50;;;;;;4271868;33;20088;-66
2022/06/13 08:45:28;;;;;;;2.10;1.05;;;18.80;90.80;;;;;;4275143;33;20088;-66
2022/06/13 08:48:07;;;;;;;0.53;0.43;;;19.10;90.60;;;;;;4273069;33;21220;-65
2022/06/13 08:50:55;;;;;;;0.30;0.30;;;19.60;90.40;;;;;;4276655;33;20778;-64
2022/06/13 08:53:24;;;;;;;0.28;0.28;;;20.00;89.70;;;;;;4271296;33;20632;-66
2022/06/13 08:55:55;;;;;;;0.30;0.30;;;20.10;89.90;;;;;;4276172;33;20096;-66
2022/06/13 08:58:34;;;;;;;1.10;0.98;;;20.10;89.00;;;;;;4276204;33;20178;-66
2022/06/13 09:01:07;;;;;;;2.28;0.73;;;20.00;90.20;;;;;;4285215;33;20507;-65
2022/06/13 09:03:49;;;;;;;0.30;0.30;;;19.60;89.20;;;;;;4274760;33;20870;-65
2022/06/13 09:06:24;;;;;;;0.52;0.52;;;19.30;89.80;;;;;;4285627;33;20399;-66
2022/06/13 09:09:01;;;;;;;0.95;0.90;;;19.40;90.40;;;;;;4281962;33;20088;-65
2022/06/13 09:11:52;;;;;;;1.10;1.08;;;19.50;90.50;;;;;;4276967;33;20100;-65
2022/06/13 09:14:23;;;;;;;0.37;0.37;;;19.60;90.40;;;;;;4277785;33;20067;-65
2022/06/13 09:16:58;;;;;;;1.45;0.70;;;19.70;90.30;;;;;;4275329;33;20668;-66
2022/06/13 09:19:31;;;;;;;3.97;0.68;;;20.00;89.90;;;;;;4274731;33;20569;-66
2022/06/13 09:22:08;;;;;;;0.37;0.37;;;19.70;89.20;;;;;;4267285;33;20128;-66
2022/06/13 09:24:54;;;;;;;0.62;0.50;;;19.30;90.40;;;;;;4259655;33;21445;-66
2022/06/13 09:27:24;;;;;;;0.30;0.30;;;19.10;91.00;;;;;;4269038;33;20192;-66
2022/06/13 09:29:57;;;;;;;0.60;0.60;;;19.20;91.30;;;;;;4277418;33;20204;-67
2022/06/13 09:32:29;;;;;;;0.47;0.30;;;19.20;91.30;;;;;;4275503;33;20355;-67
2022/06/13 09:35:08;;;;;;;0.30;0.30;;;18.90;91.60;;;;;;4272095;33;20099;-66
2022/06/13 09:37:42;;;;;;;0.30;0.30;;;19.00;91.90;;;;;;4278534;33;20113;-67
2022/06/13 09:40:10;;;;;;;0.40;0.40;;;19.20;91.90;;;;;;4283124;33;20587;-67
2022/06/13 09:42:57;;;;;;;0.20;0.20;;;19.10;91.50;;;;;;4274665;33;20103;-66
2022/06/13 09:45:46;;;;;;;2.83;1.60;;;19.20;91.80;;;;;;4277167;33;20410;-67
2022/06/13 09:48:25;;;;;;;0.40;0.40;;;19.60;91.60;;;;;;4276370;33;20076;-66
2022/06/13 09:51:05;;;;;;;0.22;0.22;;;19.90;90.20;;;;;;4283719;33;20184;-66
2022/06/13 09:53:44;;;;;;;1.25;0.50;;;20.20;89.20;;;;;;4279714;33;20697;-66
2022/06/13 09:56:22;;;;;;;0.85;0.55;;;20.40;88.10;;;;;;4276401;33;20140;-66
2022/06/13 09:59:03;;;;;;;23.85;1.52;;;20.50;87.30;;;;;;4275720;33;20121;-66
2022/06/13 10:01:43;;;;;;;0.60;0.60;;;20.60;87.00;;;;;;4284153;33;20258;-66
2022/06/13 10:04:15;;;;;;;18.75;4.28;;;20.80;86.40;;;;;;4284763;33;20072;-65
2022/06/13 10:06:50;;;;;;;0.30;0.30;;;20.70;86.40;;;;;;4283307;33;20115;-65
2022/06/13 10:09:55;;;;;;;1.87;0.62;;;21.00;84.20;;;;;;4273878;33;20101;-65
2022/06/13 10:12:44;;;;;;;1.75;1.17;;;21.10;83.60;;;;;;4272523;33;20099;-65
2022/06/13 10:15:30;;;;;;;1.15;0.52;;;21.40;84.80;;;;;;4285292;33;20091;-66
2022/06/13 10:18:20;;;;;;;0.28;0.28;;;21.90;82.10;;;;;;4266547;33;20144;-65
2022/06/13 10:20:59;;;;;;;0.80;0.50;;;22.00;80.10;;;;;;4271883;33;20107;-66
2022/06/13 10:23:46;;;;;;;0.20;0.20;;;22.00;78.80;;;;;;4280268;33;20096;-66
2022/06/13 10:26:24;;;;;;;8.48;0.40;;;22.10;78.40;;;;;;4275053;33;20085;-65
2022/06/13 10:29:17;;;;;;;0.88;0.40;;;22.20;77.70;;;;;;4284911;33;20089;-65
2022/06/13 10:32:22;;;;;;;1.83;0.40;;;22.00;76.60;;;;;;4279762;33;20091;-66
2022/06/13 10:35:02;;;;;;;0.30;0.30;;;21.60;77.90;;;;;;4279009;33;20837;-65
2022/06/13 10:37:52;;;;;;;0.80;0.68;;;21.40;77.30;;;;;;4281802;33;20172;-65
2022/06/13 10:40:17;;;;;;;5.78;0.30;;;21.00;78.10;;;;;;4276947;33;20937;-66
2022/06/13 10:42:45;;;;;;;0.20;0.20;;;21.00;78.50;;;;;;4280864;33;20132;-65
2022/06/13 10:45:12;;;;;;;0.37;0.37;;;21.10;77.80;;;;;;4273601;33;21805;-65
2022/06/13 10:48:00;;;;;;;0.35;0.35;;;21.30;78.20;;;;;;4267432;33;20072;-65
2022/06/13 10:50:42;;;;;;;0.28;0.28;;;21.90;77.50;;;;;;4281538;33;20195;-64
2022/06/13 10:53:15;;;;;;;0.30;0.30;;;22.10;76.20;;;;;;4274310;33;20100;-65
2022/06/13 10:55:43;;;;;;;0.28;0.28;;;22.60;75.70;;;;;;4277569;33;20104;-66
2022/06/13 10:58:16;;;;;;;0.37;0.37;;;22.80;74.80;;;;;;4273533;33;20105;-66
2022/06/13 11:01:02;;;;;;;0.25;0.25;;;22.60;74.00;;;;;;4282547;33;20079;-66
2022/06/13 11:03:28;;;;;;;0.22;0.22;;;22.50;73.70;;;;;;4273147;33;20557;-66
2022/06/13 11:05:59;;;;;;;0.20;0.20;;;22.50;72.90;;;;;;4287949;33;20091;-67
2022/06/13 11:08:27;;;;;;;0.30;0.30;;;22.90;73.20;;;;;;4283276;33;20085;-66
2022/06/13 11:10:57;;;;;;;0.13;0.13;;;23.20;71.30;;;;;;4278077;33;20752;-66
2022/06/13 11:13:27;;;;;;;0.30;0.30;;;23.80;69.70;;;;;;4286039;33;20095;-66
2022/06/13 11:22:45;;;;;;;1.35;0.55;;;22.80;69.60;;;;;;4281300;33;20104;-66
2022/06/13 11:24:39;;;;;;;0.30;0.30;;;23.50;70.40;;;;;;4286582;33;20560;-66
2022/06/13 11:28:05;;;;;;;0.30;0.30;;;23.40;67.60;;;;;;4292185;33;20059;-66
2022/06/13 11:30:27;;;;;;;0.85;0.65;;;23.30;67.60;;;;;;4278512;33;20431;-66
2022/06/13 11:33:00;;;;;;;0.70;0.40;;;24.00;67.20;;;;;;4285731;33;20160;-66
2022/06/13 11:35:38;;;;;;;0.47;0.47;;;23.70;66.30;;;;;;4289506;33;20099;-66
2022/06/13 11:38:26;;;;;;;0.20;0.20;;;23.20;66.70;;;;;;4289579;33;20854;-66
2022/06/13 11:41:14;;;;;;;0.22;0.22;;;22.80;68.90;;;;;;4281218;33;20161;-66
2022/06/13 11:43:48;;;;;;;0.25;0.20;;;23.80;68.00;;;;;;4261348;33;20288;-66
2022/06/13 11:46:33;;;;;;;0.68;0.62;;;24.30;65.60;;;;;;4259139;33;20283;-66
2022/06/13 11:49:21;;;;;;;0.30;0.30;;;23.90;66.20;;;;;;4265327;33;20521;-66
2022/06/13 11:52:11;;;;;;;3.05;1.05;;;23.30;67.40;;;;;;4274646;33;20695;-66
2022/06/13 11:54:51;;;;;;;0.30;0.30;;;23.30;69.10;;;;;;4281522;33;21013;-67
2022/06/13 11:57:34;;;;;;;0.75;0.25;;;24.00;67.70;;;;;;4283845;33;20076;-67
2022/06/13 12:00:19;;;;;;;1.30;0.68;;;24.60;67.90;;;;;;4281460;33;20092;-66
2022/06/13 12:02:50;;;;;;;0.75;0.37;;;24.80;66.00;;;;;;4281177;33;20141;-67
2022/06/13 12:05:34;;;;;;;0.43;0.30;;;24.80;66.80;;;;;;4283466;33;20112;-66
2022/06/13 12:08:16;;;;;;;0.40;0.40;;;24.60;66.50;;;;;;4288753;33;20096;-66
2022/06/13 12:10:55;;;;;;;0.17;0.17;;;23.60;67.80;;;;;;4288861;33;20147;-66
2022/06/13 12:13:22;;;;;;;2.17;0.68;;;23.50;69.00;;;;;;4290025;33;20236;-66
2022/06/13 12:16:13;;;;;;;0.40;0.40;;;23.10;69.90;;;;;;4288002;33;20056;-66
2022/06/13 12:18:44;;;;;;;0.57;0.57;;;22.70;73.10;;;;;;4285100;33;20135;-65
2022/06/13 12:21:22;;;;;;;0.40;0.40;;;22.30;75.10;;;;;;4284652;33;20462;-66
2022/06/13 12:23:52;;;;;;;0.20;0.20;;;21.40;77.10;;;;;;4282113;33;20574;-66
2022/06/13 12:26:36;;;;;;;0.20;0.20;;;21.30;78.30;;;;;;4279944;33;20085;-66
2022/06/13 12:29:28;;;;;;;0.30;0.30;;;21.20;77.30;;;;;;4284372;33;20070;-66
2022/06/13 12:32:02;;;;;;;0.40;0.40;;;20.90;77.50;;;;;;4282002;33;20422;-65
2022/06/13 12:34:37;;;;;;;2.50;1.00;;;20.90;77.80;;;;;;4285252;33;20158;-66
2022/06/13 12:37:43;;;;;;;1.42;1.20;;;20.70;77.90;;;;;;4284358;33;20469;-66
2022/06/13 12:40:37;;;;;;;0.25;0.25;;;20.60;78.40;;;;;;4291190;33;20135;-66
2022/06/13 12:43:17;;;;;;;0.30;0.30;;;20.60;78.10;;;;;;4280551;33;20524;-65
2022/06/13 12:46:04;;;;;;;1.25;0.55;;;20.70;78.20;;;;;;4283367;33;20958;-65
2022/06/13 12:49:04;;;;;;;0.20;0.20;;;20.70;78.80;;;;;;4277471;33;20689;-66
2022/06/13 12:51:59;;;;;;;0.47;0.43;;;20.80;78.40;;;;;;4281200;33;20303;-65
2022/06/13 12:54:39;;;;;;;0.40;0.40;;;20.80;78.50;;;;;;4273778;33;20241;-65
2022/06/13 12:57:32;;;;;;;0.30;0.30;;;20.80;78.20;;;;;;4281493;33;20083;-65
2022/06/13 13:00:07;;;;;;;1.60;0.30;;;21.20;78.10;;;;;;4270854;33;20142;-65
2022/06/13 13:02:55;;;;;;;0.40;0.40;;;21.50;75.80;;;;;;4270615;33;20432;-65
2022/06/13 13:05:46;;;;;;;0.28;0.28;;;21.40;76.30;;;;;;4279273;33;20093;-65
2022/06/13 13:08:42;;;;;;;0.35;0.35;;;21.70;77.70;;;;;;4286730;33;20156;-65
2022/06/13 13:11:20;;;;;;;0.30;0.30;;;21.90;74.40;;;;;;4291082;33;20208;-65
2022/06/13 13:14:04;;;;;;;0.65;0.40;;;21.80;75.10;;;;;;4289994;33;20545;-65
2022/06/13 13:16:56;;;;;;;0.30;0.30;;;21.40;74.70;;;;;;4292655;33;20623;-65
2022/06/13 13:19:33;;;;;;;0.60;0.45;;;21.00;75.60;;;;;;4282198;33;20084;-65
2022/06/13 13:22:13;;;;;;;0.22;0.22;;;20.80;76.90;;;;;;4279922;33;20117;-65
2022/06/13 13:25:04;;;;;;;0.30;0.30;;;20.80;77.80;;;;;;4284207;33;20283;-65
2022/06/13 13:27:42;;;;;;;0.30;0.30;;;20.90;78.30;;;;;;4288141;33;20111;-66
2022/06/13 13:30:30;;;;;;;4.03;1.05;;;20.90;80.80;;;;;;4290545;33;20072;-66
2022/06/13 13:33:23;;;;;;;0.30;0.30;;;22.20;80.50;;;;;;4283155;33;20574;-66
2022/06/13 13:36:10;;;;;;;1.37;0.90;;;24.30;77.20;;;;;;4297329;33;20538;-66
2022/06/13 13:38:42;;;;;;;0.20;0.20;;;25.30;72.30;;;;;;4297126;33;20092;-66
2022/06/13 13:41:22;;;;;;;0.10;0.10;;;25.60;70.80;;;;;;4295556;33;20068;-66